sensor_id;sensor_type;location;lat;lon;timestamp;pressure;altitude;pressure_sealevel;temperature;humidity
19736;BME280;32064;49.310;8.646;2022-11-03T00:01:53;100943.69;;;12.29;75.42
19736;BME280;32064;49.310;8.646;2022-11-03T00:04:20;100934.06;;;12.28;76.07
19736;BME280;32064;49.310;8.646;2022-11-03T00:06:51;100942.53;;;12.21;76.16
19736;BME280;32064;49.310;8.646;2022-11-03T00:09:18;100948.00;;;12.18;77.93
19736;BME280;32064;49.310;8.646;2022-11-03T00:11:45;100939.97;;;12.19;75.87
19736;BME280;32064;49.310;8.646;2022-11-03T00:14:12;100940.19;;;12.16;75.88
19736;BME280;32064;49.310;8.646;2022-11-03T00:16:39;100921.72;;;12.16;76.81
19736;BME280;32064;49.310;8.646;2022-11-03T00:19:05;100926.25;;;12.14;77.49
19736;BME280;32064;49.310;8.646;2022-11-03T00:21:31;100927.84;;;12.04;77.04
19736;BME280;32064;49.310;8.646;2022-11-03T00:23:57;100929.53;;;11.92;78.38
19736;BME280;32064;49.310;8.646;2022-11-03T00:26:27;100937.34;;;12.06;77.46
19736;BME280;32064;49.310;8.646;2022-11-03T00:28:57;100942.84;;;12.03;77.43
19736;BME280;32064;49.310;8.646;2022-11-03T00:31:28;100935.63;;;12.05;76.00
19736;BME280;32064;49.310;8.646;2022-11-03T00:33:54;100925.97;;;12.06;77.46
19736;BME280;32064;49.310;8.646;2022-11-03T00:36:22;100932.91;;;12.07;76.27
19736;BME280;32064;49.310;8.646;2022-11-03T00:38:48;100931.03;;;12.09;76.65
19736;BME280;32064;49.310;8.646;2022-11-03T00:41:14;100924.66;;;12.11;76.18
19736;BME280;32064;49.310;8.646;2022-11-03T00:43:40;100909.81;;;12.10;77.14
19736;BME280;32064;49.310;8.646;2022-11-03T00:46:06;100897.47;;;11.98;76.64
19736;BME280;32064;49.310;8.646;2022-11-03T00:48:33;100902.94;;;11.95;77.14
19736;BME280;32064;49.310;8.646;2022-11-03T00:51:29;100888.47;;;11.88;76.14
19736;BME280;32064;49.310;8.646;2022-11-03T00:53:56;100894.19;;;11.95;76.11
19736;BME280;32064;49.310;8.646;2022-11-03T00:56:23;100896.09;;;11.93;76.29
19736;BME280;32064;49.310;8.646;2022-11-03T00:58:50;100886.47;;;11.91;77.04
19736;BME280;32064;49.310;8.646;2022-11-03T01:01:24;100895.13;;;11.94;76.48
19736;BME280;32064;49.310;8.646;2022-11-03T01:03:52;100893.44;;;11.93;76.94
19736;BME280;32064;49.310;8.646;2022-11-03T01:06:39;100881.63;;;11.85;77.27
19736;BME280;32064;49.310;8.646;2022-11-03T01:14:23;100884.34;;;11.84;78.78
19736;BME280;32064;49.310;8.646;2022-11-03T01:16:49;100869.81;;;11.91;77.67
19736;BME280;32064;49.310;8.646;2022-11-03T01:19:14;100885.53;;;11.93;76.53
19736;BME280;32064;49.310;8.646;2022-11-03T01:21:40;100875.41;;;11.86;76.21
19736;BME280;32064;49.310;8.646;2022-11-03T01:24:05;100868.00;;;11.91;77.50
19736;BME280;32064;49.310;8.646;2022-11-03T01:26:31;100875.69;;;11.82;76.97
19736;BME280;32064;49.310;8.646;2022-11-03T01:28:58;100872.22;;;11.81;77.33
19736;BME280;32064;49.310;8.646;2022-11-03T01:31:25;100866.94;;;11.81;77.00
19736;BME280;32064;49.310;8.646;2022-11-03T01:33:52;100855.44;;;11.82;78.45
19736;BME280;32064;49.310;8.646;2022-11-03T01:36:18;100850.16;;;11.82;76.98
19736;BME280;32064;49.310;8.646;2022-11-03T01:38:44;100853.53;;;11.84;77.84
19736;BME280;32064;49.310;8.646;2022-11-03T01:41:13;100861.03;;;11.78;78.66
19736;BME280;32064;49.310;8.646;2022-11-03T01:43:40;100861.38;;;11.86;77.52
19736;BME280;32064;49.310;8.646;2022-11-03T01:46:13;100859.13;;;11.80;77.62
19736;BME280;32064;49.310;8.646;2022-11-03T01:48:46;100858.28;;;11.79;77.95
19736;BME280;32064;49.310;8.646;2022-11-03T01:51:14;100853.84;;;11.80;78.38
19736;BME280;32064;49.310;8.646;2022-11-03T01:53:44;100849.84;;;11.74;78.84
19736;BME280;32064;49.310;8.646;2022-11-03T01:56:12;100840.25;;;11.73;78.67
19736;BME280;32064;49.310;8.646;2022-11-03T01:58:41;100836.34;;;11.79;78.93
19736;BME280;32064;49.310;8.646;2022-11-03T02:01:09;100829.50;;;11.76;77.50
19736;BME280;32064;49.310;8.646;2022-11-03T02:03:41;100839.19;;;11.76;79.18
19736;BME280;32064;49.310;8.646;2022-11-03T02:06:08;100831.91;;;11.79;79.05
19736;BME280;32064;49.310;8.646;2022-11-03T02:08:40;100834.22;;;11.71;78.66
19736;BME280;32064;49.310;8.646;2022-11-03T02:11:08;100829.59;;;11.75;78.42
19736;BME280;32064;49.310;8.646;2022-11-03T02:13:51;100823.59;;;11.73;79.33
19736;BME280;32064;49.310;8.646;2022-11-03T02:16:18;100820.00;;;11.74;77.55
19736;BME280;32064;49.310;8.646;2022-11-03T02:18:45;100823.47;;;11.74;77.59
19736;BME280;32064;49.310;8.646;2022-11-03T02:21:26;100820.84;;;11.74;78.26
19736;BME280;32064;49.310;8.646;2022-11-03T02:24:07;100815.69;;;11.73;78.54
19736;BME280;32064;49.310;8.646;2022-11-03T02:26:37;100816.63;;;11.72;79.35
19736;BME280;32064;49.310;8.646;2022-11-03T02:29:02;100807.66;;;11.74;78.00
19736;BME280;32064;49.310;8.646;2022-11-03T02:31:37;100799.44;;;11.66;78.88
19736;BME280;32064;49.310;8.646;2022-11-03T02:34:15;100791.84;;;11.61;79.34
19736;BME280;32064;49.310;8.646;2022-11-03T02:36:51;100792.59;;;11.63;77.51
19736;BME280;32064;49.310;8.646;2022-11-03T02:41:47;100782.91;;;11.64;78.92
19736;BME280;32064;49.310;8.646;2022-11-03T02:44:15;100774.03;;;11.65;77.15
19736;BME280;32064;49.310;8.646;2022-11-03T02:46:43;100776.66;;;11.65;77.46
19736;BME280;32064;49.310;8.646;2022-11-03T02:49:10;100777.41;;;11.67;79.53
19736;BME280;32064;49.310;8.646;2022-11-03T02:51:35;100772.25;;;11.65;77.39
19736;BME280;32064;49.310;8.646;2022-11-03T02:54:19;100762.13;;;11.59;78.31
19736;BME280;32064;49.310;8.646;2022-11-03T02:56:54;100748.53;;;11.65;79.17
19736;BME280;32064;49.310;8.646;2022-11-03T02:59:26;100747.69;;;11.65;77.89
19736;BME280;32064;49.310;8.646;2022-11-03T03:02:08;100745.34;;;11.60;79.12
19736;BME280;32064;49.310;8.646;2022-11-03T03:04:53;100747.06;;;11.61;77.73
19736;BME280;32064;49.310;8.646;2022-11-03T03:07:36;100741.16;;;11.58;78.57
19736;BME280;32064;49.310;8.646;2022-11-03T03:10:11;100736.06;;;11.55;78.01
19736;BME280;32064;49.310;8.646;2022-11-03T03:12:49;100726.41;;;11.55;79.57
19736;BME280;32064;49.310;8.646;2022-11-03T03:15:16;100724.28;;;11.48;78.61
19736;BME280;32064;49.310;8.646;2022-11-03T03:18:18;100715.84;;;11.42;78.48
19736;BME280;32064;49.310;8.646;2022-11-03T03:20:48;100713.00;;;11.45;79.64
19736;BME280;32064;49.310;8.646;2022-11-03T03:23:19;100713.66;;;11.36;80.00
19736;BME280;32064;49.310;8.646;2022-11-03T03:25:57;100708.91;;;11.41;79.65
19736;BME280;32064;49.310;8.646;2022-11-03T03:28:32;100704.47;;;11.42;79.08
19736;BME280;32064;49.310;8.646;2022-11-03T03:31:05;100709.75;;;11.42;80.71
19736;BME280;32064;49.310;8.646;2022-11-03T03:33:33;100712.59;;;11.39;78.83
19736;BME280;32064;49.310;8.646;2022-11-03T03:36:01;100703.94;;;11.37;80.46
19736;BME280;32064;49.310;8.646;2022-11-03T03:38:33;100700.34;;;11.38;79.34
19736;BME280;32064;49.310;8.646;2022-11-03T03:41:00;100691.41;;;11.40;80.29
19736;BME280;32064;49.310;8.646;2022-11-03T03:43:28;100688.53;;;11.43;78.91
19736;BME280;32064;49.310;8.646;2022-11-03T03:45:59;100691.53;;;11.39;79.28
19736;BME280;32064;49.310;8.646;2022-11-03T03:48:28;100690.47;;;11.41;79.21
19736;BME280;32064;49.310;8.646;2022-11-03T03:50:53;100691.31;;;11.42;79.52
19736;BME280;32064;49.310;8.646;2022-11-03T03:53:19;100674.66;;;11.41;79.96
19736;BME280;32064;49.310;8.646;2022-11-03T03:55:50;100668.66;;;11.39;78.54
19736;BME280;32064;49.310;8.646;2022-11-03T03:58:16;100666.63;;;11.43;80.95
19736;BME280;32064;49.310;8.646;2022-11-03T04:00:42;100672.88;;;11.42;78.92
19736;BME280;32064;49.310;8.646;2022-11-03T04:03:19;100670.44;;;11.39;79.96
19736;BME280;32064;49.310;8.646;2022-11-03T04:05:45;100663.28;;;11.41;80.44
19736;BME280;32064;49.310;8.646;2022-11-03T04:08:11;100663.69;;;11.35;79.41
19736;BME280;32064;49.310;8.646;2022-11-03T04:10:37;100654.19;;;11.32;79.89
19736;BME280;32064;49.310;8.646;2022-11-03T04:13:04;100660.13;;;11.36;81.00
19736;BME280;32064;49.310;8.646;2022-11-03T04:15:48;100648.22;;;11.30;80.30
19736;BME280;32064;49.310;8.646;2022-11-03T04:18:17;100655.47;;;11.39;81.32
19736;BME280;32064;49.310;8.646;2022-11-03T04:21:02;100643.97;;;11.40;79.53
19736;BME280;32064;49.310;8.646;2022-11-03T04:23:46;100638.09;;;11.37;80.25
19736;BME280;32064;49.310;8.646;2022-11-03T04:26:15;100643.97;;;11.40;79.96
19736;BME280;32064;49.310;8.646;2022-11-03T04:28:41;100644.41;;;11.34;81.06
19736;BME280;32064;49.310;8.646;2022-11-03T04:31:13;100643.78;;;11.31;81.43
19736;BME280;32064;49.310;8.646;2022-11-03T04:33:40;100636.28;;;11.37;80.83
19736;BME280;32064;49.310;8.646;2022-11-03T04:36:24;100633.78;;;11.36;80.93
19736;BME280;32064;49.310;8.646;2022-11-03T04:38:50;100640.28;;;11.43;80.48
19736;BME280;32064;49.310;8.646;2022-11-03T04:41:22;100638.31;;;11.34;81.18
19736;BME280;32064;49.310;8.646;2022-11-03T04:43:49;100633.66;;;11.37;80.03
19736;BME280;32064;49.310;8.646;2022-11-03T04:46:17;100634.09;;;11.31;82.48
19736;BME280;32064;49.310;8.646;2022-11-03T04:48:48;100631.66;;;11.28;81.71
19736;BME280;32064;49.310;8.646;2022-11-03T04:51:16;100629.22;;;11.38;79.98
19736;BME280;32064;49.310;8.646;2022-11-03T04:53:58;100626.41;;;11.28;81.19
19736;BME280;32064;49.310;8.646;2022-11-03T04:56:25;100624.53;;;11.30;81.23
19736;BME280;32064;49.310;8.646;2022-11-03T04:58:52;100612.94;;;11.33;81.99
19736;BME280;32064;49.310;8.646;2022-11-03T05:01:20;100610.06;;;11.36;81.52
19736;BME280;32064;49.310;8.646;2022-11-03T05:03:48;100607.66;;;11.33;81.59
19736;BME280;32064;49.310;8.646;2022-11-03T05:06:17;100606.47;;;11.37;81.02
19736;BME280;32064;49.310;8.646;2022-11-03T05:08:46;100595.63;;;11.29;81.42
19736;BME280;32064;49.310;8.646;2022-11-03T05:11:40;100601.97;;;11.26;81.66
19736;BME280;32064;49.310;8.646;2022-11-03T05:14:20;100599.22;;;11.28;82.53
19736;BME280;32064;49.310;8.646;2022-11-03T05:16:47;100599.31;;;11.26;80.55
19736;BME280;32064;49.310;8.646;2022-11-03T05:19:17;100596.06;;;11.22;80.87
19736;BME280;32064;49.310;8.646;2022-11-03T05:21:45;100593.22;;;11.26;82.57
19736;BME280;32064;49.310;8.646;2022-11-03T05:24:14;100580.06;;;11.26;80.97
19736;BME280;32064;49.310;8.646;2022-11-03T05:26:41;100567.72;;;11.26;81.17
19736;BME280;32064;49.310;8.646;2022-11-03T05:31:40;100557.41;;;11.23;80.95
19736;BME280;32064;49.310;8.646;2022-11-03T05:36:50;100547.72;;;11.23;80.47
19736;BME280;32064;49.310;8.646;2022-11-03T05:39:31;100546.34;;;11.18;82.37
19736;BME280;32064;49.310;8.646;2022-11-03T05:41:59;100550.25;;;11.12;82.41
19736;BME280;32064;49.310;8.646;2022-11-03T05:44:31;100559.22;;;11.10;81.63
19736;BME280;32064;49.310;8.646;2022-11-03T05:46:59;100555.03;;;11.07;83.29
19736;BME280;32064;49.310;8.646;2022-11-03T05:49:26;100551.13;;;11.13;82.43
19736;BME280;32064;49.310;8.646;2022-11-03T05:51:51;100553.53;;;11.16;83.19
19736;BME280;32064;49.310;8.646;2022-11-03T05:54:22;100550.91;;;11.16;82.32
19736;BME280;32064;49.310;8.646;2022-11-03T05:56:49;100543.72;;;11.18;80.75
19736;BME280;32064;49.310;8.646;2022-11-03T05:59:19;100540.81;;;11.10;81.06
19736;BME280;32064;49.310;8.646;2022-11-03T06:01:46;100530.06;;;11.13;82.74
19736;BME280;32064;49.310;8.646;2022-11-03T06:04:22;100526.59;;;10.99;83.30
19736;BME280;32064;49.310;8.646;2022-11-03T06:07:00;100525.94;;;11.09;82.72
19736;BME280;32064;49.310;8.646;2022-11-03T06:09:26;100521.81;;;11.17;82.64
19736;BME280;32064;49.310;8.646;2022-11-03T06:11:54;100513.19;;;11.15;83.40
19736;BME280;32064;49.310;8.646;2022-11-03T06:14:25;100500.03;;;11.15;83.20
19736;BME280;32064;49.310;8.646;2022-11-03T06:16:56;100499.91;;;11.17;82.54
19736;BME280;32064;49.310;8.646;2022-11-03T06:19:31;100497.41;;;11.15;82.99
19736;BME280;32064;49.310;8.646;2022-11-03T06:22:24;100494.34;;;11.09;82.78
19736;BME280;32064;49.310;8.646;2022-11-03T06:24:51;100497.28;;;11.17;81.85
19736;BME280;32064;49.310;8.646;2022-11-03T06:27:22;100500.75;;;11.17;82.06
19736;BME280;32064;49.310;8.646;2022-11-03T06:29:50;100507.78;;;11.30;82.53
19736;BME280;32064;49.310;8.646;2022-11-03T06:32:16;100509.78;;;11.26;81.53
19736;BME280;32064;49.310;8.646;2022-11-03T06:34:47;100516.00;;;11.25;82.79
19736;BME280;32064;49.310;8.646;2022-11-03T06:37:21;100515.19;;;11.24;83.46
19736;BME280;32064;49.310;8.646;2022-11-03T06:39:48;100511.44;;;11.40;83.10
19736;BME280;32064;49.310;8.646;2022-11-03T06:42:14;100506.59;;;11.46;81.88
19736;BME280;32064;49.310;8.646;2022-11-03T06:44:43;100516.25;;;11.46;83.23
19736;BME280;32064;49.310;8.646;2022-11-03T06:47:23;100515.63;;;11.55;82.24
19736;BME280;32064;49.310;8.646;2022-11-03T06:49:51;100508.19;;;11.60;82.18
19736;BME280;32064;49.310;8.646;2022-11-03T06:52:30;100507.41;;;11.71;82.29
19736;BME280;32064;49.310;8.646;2022-11-03T06:57:36;100496.31;;;11.79;80.26
19736;BME280;32064;49.310;8.646;2022-11-03T07:00:29;100495.25;;;11.81;81.10
19736;BME280;32064;49.310;8.646;2022-11-03T07:05:46;100486.72;;;12.02;79.74
19736;BME280;32064;49.310;8.646;2022-11-03T07:08:27;100477.38;;;11.98;81.84
19736;BME280;32064;49.310;8.646;2022-11-03T07:11:03;100475.59;;;11.98;81.07
19736;BME280;32064;49.310;8.646;2022-11-03T07:13:32;100463.41;;;12.20;79.83
19736;BME280;32064;49.310;8.646;2022-11-03T07:15:58;100462.22;;;12.24;79.80
19736;BME280;32064;49.310;8.646;2022-11-03T07:18:30;100460.09;;;12.29;78.87
19736;BME280;32064;49.310;8.646;2022-11-03T07:21:02;100463.91;;;12.25;79.24
19736;BME280;32064;49.310;8.646;2022-11-03T07:23:29;100462.97;;;12.59;79.10
19736;BME280;32064;49.310;8.646;2022-11-03T07:25:59;100457.59;;;12.61;79.35
19736;BME280;32064;49.310;8.646;2022-11-03T07:28:30;100452.06;;;12.64;77.58
19736;BME280;32064;49.310;8.646;2022-11-03T07:30:59;100454.59;;;12.66;78.31
19736;BME280;32064;49.310;8.646;2022-11-03T07:33:27;100449.78;;;12.59;77.57
19736;BME280;32064;49.310;8.646;2022-11-03T07:35:54;100447.63;;;12.65;77.68
19736;BME280;32064;49.310;8.646;2022-11-03T07:38:23;100442.25;;;12.66;78.91
19736;BME280;32064;49.310;8.646;2022-11-03T07:40:51;100441.66;;;12.63;79.14
19736;BME280;32064;49.310;8.646;2022-11-03T07:43:18;100434.09;;;12.69;77.57
19736;BME280;32064;49.310;8.646;2022-11-03T07:45:53;100431.09;;;12.74;77.18
19736;BME280;32064;49.310;8.646;2022-11-03T07:50:50;100424.13;;;12.73;79.04
19736;BME280;32064;49.310;8.646;2022-11-03T07:53:34;100415.59;;;12.80;77.70
19736;BME280;32064;49.310;8.646;2022-11-03T07:56:12;100419.66;;;12.85;77.08
19736;BME280;32064;49.310;8.646;2022-11-03T07:58:40;100409.47;;;12.80;77.68
19736;BME280;32064;49.310;8.646;2022-11-03T08:01:22;100409.97;;;12.85;78.29
19736;BME280;32064;49.310;8.646;2022-11-03T08:03:49;100404.31;;;12.90;77.53
19736;BME280;32064;49.310;8.646;2022-11-03T08:06:15;100400.09;;;12.87;78.02
19736;BME280;32064;49.310;8.646;2022-11-03T08:08:40;100400.31;;;12.95;76.85
19736;BME280;32064;49.310;8.646;2022-11-03T08:11:05;100382.19;;;13.02;76.60
19736;BME280;32064;49.310;8.646;2022-11-03T08:13:31;100379.50;;;13.13;76.11
19736;BME280;32064;49.310;8.646;2022-11-03T08:15:57;100371.47;;;13.15;76.80
19736;BME280;32064;49.310;8.646;2022-11-03T08:18:23;100356.81;;;13.22;76.05
19736;BME280;32064;49.310;8.646;2022-11-03T08:20:48;100341.34;;;13.17;75.79
19736;BME280;32064;49.310;8.646;2022-11-03T08:23:14;100337.00;;;13.28;75.63
19736;BME280;32064;49.310;8.646;2022-11-03T08:25:39;100332.81;;;13.46;75.61
19736;BME280;32064;49.310;8.646;2022-11-03T08:28:05;100336.34;;;13.35;75.46
19736;BME280;32064;49.310;8.646;2022-11-03T08:30:30;100334.28;;;13.39;75.52
19736;BME280;32064;49.310;8.646;2022-11-03T08:32:56;100349.00;;;13.53;75.37
19736;BME280;32064;49.310;8.646;2022-11-03T08:35:21;100345.88;;;13.59;75.43
19736;BME280;32064;49.310;8.646;2022-11-03T08:37:47;100351.16;;;13.59;73.92
19736;BME280;32064;49.310;8.646;2022-11-03T08:40:12;100350.56;;;13.55;74.75
19736;BME280;32064;49.310;8.646;2022-11-03T08:42:38;100357.34;;;13.48;74.57
19736;BME280;32064;49.310;8.646;2022-11-03T08:45:03;100353.72;;;13.49;75.25
19736;BME280;32064;49.310;8.646;2022-11-03T08:47:29;100356.28;;;13.39;76.06
19736;BME280;32064;49.310;8.646;2022-11-03T08:49:54;100355.94;;;13.65;74.76
19736;BME280;32064;49.310;8.646;2022-11-03T08:52:19;100357.91;;;13.73;74.85
19736;BME280;32064;49.310;8.646;2022-11-03T08:54:45;100354.44;;;13.93;74.35
19736;BME280;32064;49.310;8.646;2022-11-03T08:57:11;100352.81;;;14.02;74.03
19736;BME280;32064;49.310;8.646;2022-11-03T08:59:36;100348.56;;;14.20;74.07
19736;BME280;32064;49.310;8.646;2022-11-03T09:02:03;100345.84;;;14.31;73.85
19736;BME280;32064;49.310;8.646;2022-11-03T09:04:28;100336.97;;;14.42;73.81
19736;BME280;32064;49.310;8.646;2022-11-03T09:06:53;100343.91;;;14.64;72.87
19736;BME280;32064;49.310;8.646;2022-11-03T09:09:19;100333.91;;;14.87;72.83
19736;BME280;32064;49.310;8.646;2022-11-03T09:11:46;100331.16;;;15.18;71.88
19736;BME280;32064;49.310;8.646;2022-11-03T09:14:11;100333.25;;;15.24;71.66
19736;BME280;32064;49.310;8.646;2022-11-03T09:16:37;100332.78;;;15.67;69.56
19736;BME280;32064;49.310;8.646;2022-11-03T09:19:02;100333.63;;;15.87;68.42
19736;BME280;32064;49.310;8.646;2022-11-03T09:21:28;100326.78;;;15.94;68.17
19736;BME280;32064;49.310;8.646;2022-11-03T09:23:53;100329.13;;;15.98;68.68
19736;BME280;32064;49.310;8.646;2022-11-03T09:26:19;100327.47;;;15.97;68.75
19736;BME280;32064;49.310;8.646;2022-11-03T09:28:44;100336.56;;;15.84;68.44
19736;BME280;32064;49.310;8.646;2022-11-03T09:31:10;100313.56;;;15.75;68.87
19736;BME280;32064;49.310;8.646;2022-11-03T09:33:35;100309.81;;;15.48;69.87
19736;BME280;32064;49.310;8.646;2022-11-03T09:36:01;100311.47;;;15.49;68.95
19736;BME280;32064;49.310;8.646;2022-11-03T09:38:26;100312.88;;;15.44;69.68
19736;BME280;32064;49.310;8.646;2022-11-03T09:40:53;100304.66;;;15.27;70.53
19736;BME280;32064;49.310;8.646;2022-11-03T09:43:19;100289.31;;;15.41;70.42
19736;BME280;32064;49.310;8.646;2022-11-03T09:45:44;100281.06;;;15.34;70.27
19736;BME280;32064;49.310;8.646;2022-11-03T09:48:11;100281.19;;;15.42;70.01
19736;BME280;32064;49.310;8.646;2022-11-03T09:50:38;100284.53;;;15.44;70.07
19736;BME280;32064;49.310;8.646;2022-11-03T09:53:04;100272.69;;;15.48;69.47
19736;BME280;32064;49.310;8.646;2022-11-03T09:55:32;100270.59;;;15.52;69.32
19736;BME280;32064;49.310;8.646;2022-11-03T09:58:00;100266.06;;;15.62;70.10
19736;BME280;32064;49.310;8.646;2022-11-03T10:00:26;100260.34;;;15.67;69.75
19736;BME280;32064;49.310;8.646;2022-11-03T10:02:52;100263.59;;;15.51;69.52
19736;BME280;32064;49.310;8.646;2022-11-03T10:05:24;100257.16;;;15.63;70.04
19736;BME280;32064;49.310;8.646;2022-11-03T10:07:51;100245.28;;;15.77;69.99
19736;BME280;32064;49.310;8.646;2022-11-03T10:10:19;100261.84;;;15.89;69.09
19736;BME280;32064;49.310;8.646;2022-11-03T10:12:47;100254.97;;;15.96;69.54
19736;BME280;32064;49.310;8.646;2022-11-03T10:15:18;100254.06;;;15.78;69.52
19736;BME280;32064;49.310;8.646;2022-11-03T10:17:44;100242.59;;;15.87;68.87
19736;BME280;32064;49.310;8.646;2022-11-03T10:20:16;100230.31;;;15.76;68.93
19736;BME280;32064;49.310;8.646;2022-11-03T10:22:43;100225.47;;;15.71;69.25
19736;BME280;32064;49.310;8.646;2022-11-03T10:27:51;100214.69;;;15.83;69.32
19736;BME280;32064;49.310;8.646;2022-11-03T10:30:16;100200.56;;;16.10;68.29
19736;BME280;32064;49.310;8.646;2022-11-03T10:32:42;100196.56;;;16.06;69.50
19736;BME280;32064;49.310;8.646;2022-11-03T10:35:31;100195.22;;;16.20;68.41
19736;BME280;32064;49.310;8.646;2022-11-03T10:41:16;100190.22;;;16.16;69.08
19736;BME280;32064;49.310;8.646;2022-11-03T10:44:01;100185.75;;;16.17;68.10
19736;BME280;32064;49.310;8.646;2022-11-03T10:46:27;100191.34;;;16.14;68.64
19736;BME280;32064;49.310;8.646;2022-11-03T10:49:03;100188.13;;;16.10;68.47
19736;BME280;32064;49.310;8.646;2022-11-03T10:51:29;100177.38;;;16.12;69.04
19736;BME280;32064;49.310;8.646;2022-11-03T10:53:55;100169.03;;;16.07;68.59
19736;BME280;32064;49.310;8.646;2022-11-03T10:56:20;100166.13;;;16.00;69.00
19736;BME280;32064;49.310;8.646;2022-11-03T10:58:46;100151.19;;;15.99;69.81
19736;BME280;32064;49.310;8.646;2022-11-03T11:01:12;100149.13;;;15.93;70.55
19736;BME280;32064;49.310;8.646;2022-11-03T11:03:41;100142.59;;;15.87;70.23
19736;BME280;32064;49.310;8.646;2022-11-03T11:06:23;100147.91;;;15.87;69.49
19736;BME280;32064;49.310;8.646;2022-11-03T11:08:51;100143.19;;;15.81;70.44
19736;BME280;32064;49.310;8.646;2022-11-03T11:11:22;100136.63;;;15.85;70.97
19736;BME280;32064;49.310;8.646;2022-11-03T11:14:31;100131.44;;;15.84;70.72
19736;BME280;32064;49.310;8.646;2022-11-03T11:17:00;100121.97;;;15.81;71.30
19736;BME280;32064;49.310;8.646;2022-11-03T11:19:28;100116.56;;;15.73;70.59
19736;BME280;32064;49.310;8.646;2022-11-03T11:30:02;100103.16;;;15.65;71.99
19736;BME280;32064;49.310;8.646;2022-11-03T11:35:09;100091.41;;;15.49;72.29
19736;BME280;32064;49.310;8.646;2022-11-03T11:37:36;100094.75;;;15.52;71.95
19736;BME280;32064;49.310;8.646;2022-11-03T11:40:11;100092.47;;;15.57;71.69
19736;BME280;32064;49.310;8.646;2022-11-03T11:48:32;100087.44;;;15.63;72.26
19736;BME280;32064;49.310;8.646;2022-11-03T11:50:58;100082.13;;;15.63;71.71
19736;BME280;32064;49.310;8.646;2022-11-03T11:53:24;100072.47;;;15.62;72.67
19736;BME280;32064;49.310;8.646;2022-11-03T11:58:24;100052.25;;;15.61;71.94
19736;BME280;32064;49.310;8.646;2022-11-03T12:00:56;100049.06;;;15.58;72.74
19736;BME280;32064;49.310;8.646;2022-11-03T12:03:26;100050.59;;;15.60;71.98
19736;BME280;32064;49.310;8.646;2022-11-03T12:05:53;100033.59;;;15.53;71.64
19736;BME280;32064;49.310;8.646;2022-11-03T12:08:19;100023.28;;;15.50;72.16
19736;BME280;32064;49.310;8.646;2022-11-03T12:10:59;100027.06;;;15.47;72.35
19736;BME280;32064;49.310;8.646;2022-11-03T12:13:43;100027.91;;;15.48;72.49
19736;BME280;32064;49.310;8.646;2022-11-03T12:18:56;100004.94;;;15.39;73.20
19736;BME280;32064;49.310;8.646;2022-11-03T12:21:47;99992.81;;;15.36;72.71
19736;BME280;32064;49.310;8.646;2022-11-03T12:24:26;99983.50;;;15.32;73.72
19736;BME280;32064;49.310;8.646;2022-11-03T12:26:52;99968.25;;;15.34;73.04
19736;BME280;32064;49.310;8.646;2022-11-03T12:29:17;99966.56;;;15.43;72.48
19736;BME280;32064;49.310;8.646;2022-11-03T12:31:43;99968.75;;;15.47;73.00
19736;BME280;32064;49.310;8.646;2022-11-03T12:34:08;99983.53;;;15.50;72.75
19736;BME280;32064;49.310;8.646;2022-11-03T12:36:33;99971.56;;;15.46;72.52
19736;BME280;32064;49.310;8.646;2022-11-03T12:38:59;99968.75;;;15.47;73.17
19736;BME280;32064;49.310;8.646;2022-11-03T12:41:24;99961.19;;;15.53;73.32
19736;BME280;32064;49.310;8.646;2022-11-03T12:43:51;99958.13;;;15.47;73.19
19736;BME280;32064;49.310;8.646;2022-11-03T12:46:19;99949.22;;;15.48;73.00
19736;BME280;32064;49.310;8.646;2022-11-03T12:48:45;99953.13;;;15.44;73.61
19736;BME280;32064;49.310;8.646;2022-11-03T12:51:13;99952.09;;;15.55;73.16
19736;BME280;32064;49.310;8.646;2022-11-03T12:53:39;99943.69;;;15.60;72.51
19736;BME280;32064;49.310;8.646;2022-11-03T12:56:05;99939.06;;;15.62;72.50
19736;BME280;32064;49.310;8.646;2022-11-03T12:58:31;99928.22;;;15.55;72.58
19736;BME280;32064;49.310;8.646;2022-11-03T13:00:57;99938.44;;;15.50;73.15
19736;BME280;32064;49.310;8.646;2022-11-03T13:03:23;99926.09;;;15.59;72.18
19736;BME280;32064;49.310;8.646;2022-11-03T13:05:48;99906.56;;;15.60;73.47
19736;BME280;32064;49.310;8.646;2022-11-03T13:08:13;99896.31;;;15.65;72.33
19736;BME280;32064;49.310;8.646;2022-11-03T13:10:39;99885.81;;;15.55;72.46
19736;BME280;32064;49.310;8.646;2022-11-03T13:13:05;99886.41;;;15.49;73.44
19736;BME280;32064;49.310;8.646;2022-11-03T13:15:31;99876.94;;;15.46;73.49
19736;BME280;32064;49.310;8.646;2022-11-03T13:17:57;99861.72;;;15.48;73.70
19736;BME280;32064;49.310;8.646;2022-11-03T13:20:22;99848.69;;;15.55;72.57
19736;BME280;32064;49.310;8.646;2022-11-03T13:22:48;99851.13;;;15.48;73.51
19736;BME280;32064;49.310;8.646;2022-11-03T13:25:14;99851.13;;;15.48;73.29
19736;BME280;32064;49.310;8.646;2022-11-03T13:27:39;99839.97;;;15.45;72.60
19736;BME280;32064;49.310;8.646;2022-11-03T13:30:05;99832.81;;;15.37;73.80
19736;BME280;32064;49.310;8.646;2022-11-03T13:32:32;99827.63;;;15.36;73.39
19736;BME280;32064;49.310;8.646;2022-11-03T13:34:57;99812.75;;;15.35;74.07
19736;BME280;32064;49.310;8.646;2022-11-03T13:37:23;99806.50;;;15.44;73.62
19736;BME280;32064;49.310;8.646;2022-11-03T13:39:48;99789.09;;;15.41;73.60
19736;BME280;32064;49.310;8.646;2022-11-03T13:42:14;99774.19;;;15.40;73.28
19736;BME280;32064;49.310;8.646;2022-11-03T13:44:39;99778.78;;;15.38;72.88
19736;BME280;32064;49.310;8.646;2022-11-03T13:47:04;99787.06;;;15.35;73.66
19736;BME280;32064;49.310;8.646;2022-11-03T13:49:30;99782.72;;;15.34;72.96
19736;BME280;32064;49.310;8.646;2022-11-03T13:51:55;99774.94;;;15.33;73.43